Sunday, May 27, 2018, 9:42 AM EDT
Back to Local

KDXR, Danbury Municipal Airport

Location: Danbury, CT, United States Lat: 41.367
Local Time: 9:42 AM EDT (13:42 GMT) Lon: -73.483
Time Zone: US/Eastern Elev: 459 ft

Show me the last for .
Show Decoded

2018-05-27 08:53 METAR KDXR 271253Z 08010KT 10SM OVC019 19/16 A3004 RMK AO2 SLP169 T01890156 =
2018-05-27 07:53 METAR KDXR 271153Z 07010KT 10SM OVC021 19/16 A3003 RMK AO2 SLP166 T01890156
                 10222 20189 51024 =
2018-05-27 07:02 METAR KDXR 271102Z 08012KT 10SM BKN023 OVC120 19/16 A3003 RMK AO2 PRESRR
                 T01890156 =
2018-05-27 06:53 METAR KDXR 271053Z AUTO 09011G19KT 10SM SCT023 BKN120 19/16 A3002 RMK AO2 SLP161
                 T01890156 =
2018-05-27 05:53 METAR KDXR 270953Z AUTO 07009KT 10SM CLR 19/15 A2998 RMK AO2 SLP147 T01940150 =
2018-05-27 04:53 METAR KDXR 270853Z AUTO 07009KT 10SM FEW110 19/16 A2996 RMK AO2 SLP141 T01940156
                 51012 =
2018-05-27 03:53 METAR KDXR 270753Z AUTO 08006KT 10SM BKN120 20/16 A2995 RMK AO2 SLP139 T02000156
                 =
2018-05-27 02:53 METAR KDXR 270653Z AUTO 08004KT 10SM CLR 21/16 A2994 RMK AO2 SLP133 T02110156 =
2018-05-27 01:53 METAR KDXR 270553Z AUTO 06009KT 10SM FEW120 22/16 A2992 RMK AO2 SLP128 T02220161
                 10239 20194 50010 =
2018-05-27 00:53 METAR KDXR 270453Z AUTO 04003KT 10SM CLR 22/17 A2993 RMK AO2 SLP130 T02170167
                 403060194 =
2018-05-26 23:53 METAR KDXR 270353Z AUTO 21003KT 10SM CLR 21/16 A2989 RMK AO2 SLP119 T02060161 =
2018-05-26 22:53 METAR KDXR 270253Z AUTO 00000KT 10SM CLR 21/17 A2989 RMK AO2 SLP119 T02060167
                 51018 =
2018-05-26 21:53 METAR KDXR 270153Z 00000KT 10SM CLR 21/17 A2989 RMK AO2 SLP116 T02060167 =
2018-05-26 20:53 METAR KDXR 270053Z 23004KT 10SM CLR 22/17 A2986 RMK AO2 SLP107 T02170172 =
2018-05-26 19:53 METAR KDXR 262353Z 23003KT 10SM CLR 24/18 A2984 RMK AO2 SLP101 T02390178 10306
                 20239 53012 =
2018-05-26 18:53 METAR KDXR 262253Z 00000KT 10SM CLR 28/16 A2982 RMK AO2 SLP094 T02780161 =
2018-05-26 17:53 METAR KDXR 262153Z 31004KT 10SM CLR 29/13 A2981 RMK AO2 SLP091 T02940128 =
2018-05-26 16:53 METAR KDXR 262053Z 34007KT 10SM CLR 31/13 A2981 RMK AO2 SLP088 T03060128 53000 =
2018-05-26 15:53 METAR KDXR 261953Z 29007KT 10SM FEW070 30/12 A2980 RMK AO2 SLP086 T03000122 =
2018-05-26 14:53 METAR KDXR 261853Z 28007KT 230V310 10SM CLR 31/13 A2980 RMK AO2 SLP086 T03060133
                 =
2018-05-26 13:53 METAR KDXR 261753Z 24009KT 10SM FEW100 30/14 A2980 RMK AO2 SLP087 T03000139
                 10300 20228 58009 =
2018-05-26 12:53 METAR KDXR 261653Z 29009G15KT 10SM CLR 29/13 A2981 RMK AO2 SLP091 T02940128 =
2018-05-26 11:53 METAR KDXR 261553Z 24008KT 10SM CLR 29/16 A2982 RMK AO2 SLP093 T02890156 =
2018-05-26 10:53 METAR KDXR 261453Z VRB06KT 10SM CLR 28/16 A2983 RMK AO2 SLP097 T02830156 58002 =
2018-05-26 09:53 METAR KDXR 261353Z 26009KT 10SM CLR 27/18 A2984 RMK AO2 SLP100 T02720178 =

Support USWX by starting your Amazon purchase here.